Time;durP1;ratioP1;P1;durP2;ratioP2;P2;SDS_P1;SDS_P2;PMS_P1;PMS_P2;Temp;Humidity;BMP_temperature;BMP_pressure;BME280_temperature;BME280_humidity;BME280_pressure;Samples;Min_cycle;Max_cycle;Signal;HPM_P1;HPM_P2
2023/09/03 00:01:26;;;;;;;19.53;17.73;;;;;;;15.12;100.00;102330.91;5202802;28;20045;-78
2023/09/03 00:03:58;;;;;;;20.37;18.47;;;;;;;15.03;100.00;102325.72;5203301;28;20550;-78
2023/09/03 00:06:29;;;;;;;20.70;18.80;;;;;;;14.95;100.00;102331.03;5204048;28;20097;-80
2023/09/03 00:09:01;;;;;;;20.80;18.80;;;;;;;14.90;100.00;102334.56;5202621;28;20040;-79
2023/09/03 00:11:33;;;;;;;19.75;17.77;;;;;;;14.90;100.00;102335.44;5201683;28;20034;-78
2023/09/03 00:14:04;;;;;;;20.00;17.93;;;;;;;14.89;100.00;102333.72;5201490;28;20430;-78
2023/09/03 00:16:36;;;;;;;20.50;18.70;;;;;;;14.79;100.00;102334.63;5201587;28;20027;-78
2023/09/03 00:19:07;;;;;;;22.87;20.60;;;;;;;14.66;100.00;102331.19;5183888;28;20054;-78
2023/09/03 00:21:38;;;;;;;25.33;22.73;;;;;;;14.65;100.00;102328.56;5201547;28;20501;-79
2023/09/03 00:24:10;;;;;;;23.00;20.77;;;;;;;14.69;100.00;102322.44;5201497;28;20518;-77
2023/09/03 00:26:42;;;;;;;23.87;21.47;;;;;;;14.63;100.00;102315.47;5201211;28;20482;-78
2023/09/03 00:29:13;;;;;;;23.35;21.15;;;;;;;14.63;100.00;102328.59;5201635;28;20030;-77
2023/09/03 00:31:45;;;;;;;23.83;21.43;;;;;;;14.49;100.00;102330.34;5200921;28;20485;-78
2023/09/03 00:34:16;;;;;;;23.27;21.10;;;;;;;14.49;100.00;102344.38;5201310;28;20514;-78
2023/09/03 00:36:48;;;;;;;22.00;20.00;;;;;;;14.48;100.00;102344.38;5200973;28;20027;-78
2023/09/03 00:39:19;;;;;;;22.07;19.97;;;;;;;14.38;100.00;102343.53;5183930;28;20033;-78
2023/09/03 00:41:50;;;;;;;23.43;21.03;;;;;;;14.45;100.00;102347.00;5201444;28;20038;-77
2023/09/03 00:44:22;;;;;;;21.40;19.30;;;;;;;14.45;100.00;102352.25;5200873;28;20041;-77
2023/09/03 00:46:53;;;;;;;23.17;21.03;;;;;;;14.38;100.00;102352.28;5183772;28;20027;-77
2023/09/03 00:49:25;;;;;;;23.20;20.80;;;;;;;14.33;100.00;102354.06;5200975;28;20038;-77
2023/09/03 00:51:57;;;;;;;23.70;21.25;;;;;;;14.32;100.00;102356.69;5200896;28;20045;-77
2023/09/03 00:54:28;;;;;;;21.87;19.73;;;;;;;14.34;100.00;102350.53;5200689;28;20035;-77
2023/09/03 00:57:01;;;;;;;20.53;18.73;;;;;;;14.35;100.00;102354.91;5183387;28;20393;-78
2023/09/03 00:59:33;;;;;;;20.08;18.17;;;;;;;14.35;100.00;102354.06;5183483;28;20034;-78
2023/09/03 01:02:05;;;;;;;19.42;17.45;;;;;;;14.28;100.00;102347.94;5200800;28;20034;-78
2023/09/03 01:04:37;;;;;;;18.05;16.15;;;;;;;14.22;100.00;102353.22;5200986;28;20496;-78
2023/09/03 01:07:11;;;;;;;20.27;16.77;;;;;;;14.21;100.00;102359.31;5200915;28;20117;-77
2023/09/03 01:09:43;;;;;;;18.90;17.10;;;;;;;14.23;100.00;102373.28;5203931;28;20277;-78
2023/09/03 01:12:28;;;;;;;18.30;16.60;;;;;;;14.20;100.00;102381.22;5210830;28;20061;-78
2023/09/03 01:15:28;;;;;;;17.52;15.85;;;;;;;14.25;100.00;102378.53;5210604;28;20088;-77
2023/09/03 01:18:27;;;;;;;18.10;16.20;;;;;;;14.17;100.00;102365.47;5206290;28;20050;-78
2023/09/03 01:21:23;;;;;;;18.00;16.30;;;;;;;14.14;100.00;102365.47;5190650;28;20046;-78
2023/09/03 01:23:55;;;;;;;16.83;15.02;;;;;;;14.07;100.00;102355.84;5210681;28;20037;-78
2023/09/03 01:26:54;;;;;;;16.90;15.13;;;;;;;14.07;100.00;102355.84;5211050;28;20411;-78
2023/09/03 01:29:27;;;;;;;16.85;15.18;;;;;;;14.14;100.00;102361.09;5210927;28;20026;-78
2023/09/03 01:32:00;;;;;;;17.48;15.73;;;;;;;14.00;100.00;102363.72;5215568;28;20070;-77
2023/09/03 01:34:33;;;;;;;15.80;14.30;;;;;;;14.07;100.00;102363.72;5218847;28;20045;-79
2023/09/03 01:37:06;;;;;;;16.88;15.18;;;;;;;13.97;100.00;102368.97;5214319;28;20030;-76
2023/09/03 01:39:37;;;;;;;17.67;15.88;;;;;;;13.96;100.00;102359.38;5206487;28;20057;-77
2023/09/03 01:42:09;;;;;;;18.47;15.57;;;;;;;13.80;100.00;102362.91;5205768;28;20070;-78
2023/09/03 01:44:41;;;;;;;16.80;15.13;;;;;;;13.92;100.00;102362.00;5202659;28;20054;-78
2023/09/03 01:47:16;;;;;;;17.97;16.03;;;;;;;13.83;100.00;102357.66;5204007;28;20034;-78
2023/09/03 01:49:59;;;;;;;16.83;15.32;;;;;;;13.80;100.00;102362.91;5203965;28;20026;-77
2023/09/03 01:52:39;;;;;;;17.95;16.05;;;;;;;13.74;100.00;102355.91;5203745;28;20062;-78
2023/09/03 01:55:13;;;;;;;17.40;14.95;;;;;;;13.77;100.00;102355.06;5203815;28;20031;-78
2023/09/03 01:57:47;;;;;;;17.30;15.60;;;;;;;13.72;100.00;102359.41;5204294;28;20129;-78
2023/09/03 02:00:20;;;;;;;16.73;15.02;;;;;;;13.70;100.00;102358.53;5203993;28;20046;-79
2023/09/03 02:02:52;;;;;;;17.08;15.48;;;;;;;13.65;100.00;102364.66;5186729;28;20044;-78
2023/09/03 02:05:24;;;;;;;17.90;16.30;;;;;;;13.48;100.00;102372.50;5203865;28;20069;-79
2023/09/03 02:07:55;;;;;;;16.10;14.53;;;;;;;13.52;100.00;102368.13;5204373;28;20421;-78
2023/09/03 02:10:27;;;;;;;16.80;14.47;;;;;;;13.54;100.00;102368.13;5204144;28;20089;-78
2023/09/03 02:12:58;;;;;;;16.93;15.23;;;;;;;13.50;100.00;102375.13;5203276;28;20037;-78
2023/09/03 02:15:30;;;;;;;18.10;16.37;;;;;;;13.48;100.00;102376.88;5201947;28;20022;-78
2023/09/03 02:18:01;;;;;;;17.70;15.90;;;;;;;13.40;100.00;102387.34;5203356;28;20062;-77
2023/09/03 02:20:32;;;;;;;18.20;16.33;;;;;;;13.38;100.00;102399.59;5202757;28;20034;-79
2023/09/03 02:23:04;;;;;;;17.33;15.63;;;;;;;13.37;100.00;102395.19;5184394;28;20092;-77
2023/09/03 02:25:35;;;;;;;18.27;15.37;;;;;;;13.32;100.00;102391.69;5203608;28;20490;-78
2023/09/03 02:28:09;;;;;;;18.70;16.90;;;;;;;13.30;100.00;102403.91;5203276;28;20035;-78
2023/09/03 02:30:40;;;;;;;17.33;15.60;;;;;;;13.24;100.00;102407.38;5203410;28;20038;-78
2023/09/03 02:33:12;;;;;;;17.93;16.00;;;;;;;13.23;100.00;102403.00;5203968;28;20030;-78
2023/09/03 02:35:43;;;;;;;17.43;15.73;;;;;;;13.24;100.00;102404.75;5185921;28;20057;-78
2023/09/03 02:38:14;;;;;;;17.77;15.97;;;;;;;13.24;100.00;102411.75;5201494;28;20026;-77
2023/09/03 02:40:46;;;;;;;18.40;15.00;;;;;;;13.21;100.00;102417.84;5202944;28;20026;-79
2023/09/03 02:43:17;;;;;;;18.07;16.17;;;;;;;13.22;100.00;102405.63;5202363;28;20026;-78
2023/09/03 02:45:49;;;;;;;17.73;16.00;;;;;;;13.27;100.00;102409.13;5203117;28;20367;-79
2023/09/03 02:48:20;;;;;;;15.67;14.27;;;;;;;13.20;100.00;102395.16;5203424;28;20058;-78
2023/09/03 02:50:51;;;;;;;16.10;14.40;;;;;;;13.23;100.00;102386.41;5203276;28;20035;-79
2023/09/03 02:53:23;;;;;;;16.80;15.20;;;;;;;13.20;100.00;102383.78;5203174;28;20062;-77
2023/09/03 02:55:57;;;;;;;19.73;15.97;;;;;;;13.17;100.00;102387.28;5203242;28;20038;-77
2023/09/03 02:58:28;;;;;;;17.58;16.02;;;;;;;13.17;100.00;102387.28;5203016;28;20033;-77
2023/09/03 03:01:05;;;;;;;17.57;15.93;;;;;;;13.17;100.00;102383.78;5202864;28;20034;-77
2023/09/03 03:03:37;;;;;;;20.10;16.13;;;;;;;13.10;100.00;102386.38;5199719;28;20390;-78
2023/09/03 03:06:09;;;;;;;18.90;16.97;;;;;;;13.11;100.00;102393.38;5202504;28;20031;-77
2023/09/03 03:08:41;;;;;;;17.85;16.05;;;;;;;13.09;100.00;102399.50;5202440;28;20497;-77
2023/09/03 03:11:16;;;;;;;18.55;16.75;;;;;;;13.10;100.00;102406.47;5202104;28;20030;-77
2023/09/03 03:13:50;;;;;;;18.67;16.80;;;;;;;13.02;100.00;102398.56;5202169;28;20041;-78
2023/09/03 03:16:21;;;;;;;19.30;17.42;;;;;;;12.95;100.00;102409.91;5203010;28;20027;-78
2023/09/03 03:18:53;;;;;;;19.33;17.47;;;;;;;12.97;100.00;102404.69;5202782;28;20128;-78
2023/09/03 03:21:24;;;;;;;18.03;16.43;;;;;;;12.92;100.00;102400.28;5202559;28;20050;-78
2023/09/03 03:23:55;;;;;;;17.90;15.90;;;;;;;13.01;100.00;102393.34;5202326;28;20074;-78
2023/09/03 03:26:29;;;;;;;17.73;16.10;;;;;;;13.00;100.00;102375.91;5202686;28;20478;-76
2023/09/03 03:29:00;;;;;;;18.58;16.30;;;;;;;12.98;100.00;102361.94;5202495;28;20053;-77
2023/09/03 03:31:32;;;;;;;18.13;16.53;;;;;;;12.99;100.00;102364.53;5185064;28;20034;-77
2023/09/03 03:34:03;;;;;;;20.17;18.07;;;;;;;12.98;100.00;102362.81;5202425;28;20041;-77
2023/09/03 03:36:35;;;;;;;18.17;16.40;;;;;;;12.95;100.00;102361.03;5202307;28;20026;-77
2023/09/03 03:39:06;;;;;;;18.90;17.07;;;;;;;12.96;100.00;102361.94;5201952;28;20065;-78
2023/09/03 03:41:38;;;;;;;19.30;17.40;;;;;;;12.91;100.00;102369.78;5202206;28;20490;-77
2023/09/03 03:44:09;;;;;;;19.03;17.20;;;;;;;12.90;100.00;102378.50;5201800;28;20104;-77
2023/09/03 03:46:40;;;;;;;19.00;17.03;;;;;;;12.90;100.00;102407.28;5202457;28;20037;-77
2023/09/03 03:49:12;;;;;;;18.50;16.70;;;;;;;12.90;100.00;102399.44;5202136;28;20031;-77
2023/09/03 03:51:43;;;;;;;19.10;17.17;;;;;;;12.88;100.00;102413.38;5202000;28;20030;-78
2023/09/03 03:54:15;;;;;;;18.77;17.17;;;;;;;12.88;100.00;102405.50;5184118;28;20121;-78
2023/09/03 03:56:46;;;;;;;19.07;17.07;;;;;;;12.88;100.00;102413.38;5201985;28;20458;-78
2023/09/03 03:59:17;;;;;;;23.97;18.07;;;;;;;12.92;100.00;102402.91;5202414;28;20355;-79
2023/09/03 04:01:49;;;;;;;20.30;18.40;;;;;;;12.83;100.00;102400.28;5184378;28;20143;-78
2023/09/03 04:04:21;;;;;;;18.73;16.73;;;;;;;12.81;100.00;102407.25;5202329;28;20089;-77
2023/09/03 04:06:52;;;;;;;19.02;17.25;;;;;;;12.73;100.00;102404.59;5202354;28;20031;-77
2023/09/03 04:09:24;;;;;;;19.90;17.90;;;;;;;12.74;100.00;102408.09;5201620;28;20093;-77
2023/09/03 04:11:55;;;;;;;19.67;17.80;;;;;;;12.69;100.00;102415.06;5201274;28;20044;-76
2023/09/03 04:14:27;;;;;;;20.03;18.13;;;;;;;12.71;100.00;102419.41;5201452;28;20062;-77
2023/09/03 04:16:58;;;;;;;19.37;17.33;;;;;;;12.70;100.00;102424.63;5201284;28;20061;-77
2023/09/03 04:19:29;;;;;;;20.10;18.10;;;;;;;12.66;100.00;102418.53;5201657;28;20045;-76
2023/09/03 04:22:01;;;;;;;18.07;16.17;;;;;;;12.64;100.00;102428.13;5201408;28;20117;-77
2023/09/03 04:24:32;;;;;;;18.57;16.77;;;;;;;12.65;100.00;102424.59;5201395;28;20042;-78
2023/09/03 04:27:04;;;;;;;18.87;17.13;;;;;;;12.64;100.00;102432.44;5201511;28;20478;-77
2023/09/03 04:29:35;;;;;;;19.50;17.30;;;;;;;12.64;100.00;102425.50;5201367;28;20031;-77
2023/09/03 04:32:07;;;;;;;26.47;17.67;;;;;;;12.63;100.00;102428.09;5201596;28;20089;-78
2023/09/03 04:34:38;;;;;;;20.93;18.93;;;;;;;12.61;100.00;102430.72;5201214;28;20121;-78
2023/09/03 04:37:09;;;;;;;22.90;20.77;;;;;;;12.58;100.00;102431.56;5183684;28;20038;-78
2023/09/03 04:39:41;;;;;;;25.23;22.80;;;;;;;12.57;100.00;102421.97;5201077;28;20109;-78
2023/09/03 04:42:12;;;;;;;24.03;21.83;;;;;;;12.59;100.00;102441.16;5201288;28;20042;-77
2023/09/03 04:44:44;;;;;;;23.93;21.63;;;;;;;12.64;100.00;102443.81;5183410;28;20069;-78
2023/09/03 04:47:15;;;;;;;22.40;20.30;;;;;;;12.68;100.00;102442.06;5201455;28;20093;-78
2023/09/03 04:49:46;;;;;;;21.30;19.17;;;;;;;12.61;100.00;102446.41;5200996;28;20036;-79
2023/09/03 04:52:17;;;;;;;21.73;19.53;;;;;;;12.66;100.00;102442.06;5201185;28;20085;-79
2023/09/03 04:54:49;;;;;;;20.33;18.40;;;;;;;12.68;100.00;102456.03;5183663;28;20565;-77
2023/09/03 04:57:21;;;;;;;20.13;18.33;;;;;;;12.61;100.00;102449.03;5201040;28;20023;-76
2023/09/03 04:59:52;;;;;;;21.17;19.07;;;;;;;12.66;100.00;102447.28;5200948;28;20042;-77
2023/09/03 05:02:23;;;;;;;20.90;18.73;;;;;;;12.66;100.00;102459.50;5201002;28;20107;-77
2023/09/03 05:04:55;;;;;;;21.70;18.57;;;;;;;12.66;100.00;102467.38;5200297;28;20041;-77
2023/09/03 05:07:26;;;;;;;19.17;17.23;;;;;;;12.61;100.00;102469.09;5201457;28;20331;-76
2023/09/03 05:09:58;;;;;;;21.60;19.50;;;;;;;12.62;100.00;102468.19;5200696;28;20120;-76
2023/09/03 05:12:29;;;;;;;19.42;17.60;;;;;;;12.64;100.00;102459.50;5201076;28;20030;-76
2023/09/03 05:15:01;;;;;;;20.37;18.47;;;;;;;12.68;100.00;102468.25;5200858;28;20027;-76
2023/09/03 05:17:32;;;;;;;20.33;18.23;;;;;;;12.62;100.00;102462.97;5200896;28;20062;-76
2023/09/03 05:20:04;;;;;;;20.60;18.70;;;;;;;12.71;100.00;102474.34;5200808;28;20034;-76
2023/09/03 05:22:37;;;;;;;21.65;19.40;;;;;;;12.67;100.00;102470.00;5200719;28;20165;-77
2023/09/03 05:25:09;;;;;;;21.02;18.92;;;;;;;12.75;100.00;102472.63;5200607;28;20382;-77
2023/09/03 05:27:40;;;;;;;20.77;18.60;;;;;;;12.79;100.00;102478.78;5200613;28;20022;-76
2023/09/03 05:30:11;;;;;;;24.30;21.03;;;;;;;12.68;100.00;102482.19;5200598;28;20037;-77
2023/09/03 05:32:43;;;;;;;22.17;19.87;;;;;;;12.76;100.00;102485.72;5183220;28;20031;-77
2023/09/03 05:35:14;;;;;;;21.90;19.83;;;;;;;12.82;100.00;102489.25;5183302;28;20034;-77
2023/09/03 05:37:45;;;;;;;21.70;19.47;;;;;;;12.85;100.00;102489.28;5200227;28;20109;-78
2023/09/03 05:40:17;;;;;;;23.20;20.90;;;;;;;12.88;100.00;102490.16;5200721;28;20389;-77
2023/09/03 05:42:48;;;;;;;22.90;20.57;;;;;;;12.98;100.00;102488.47;5183066;28;20035;-76
2023/09/03 05:45:20;;;;;;;22.97;20.90;;;;;;;13.04;100.00;102487.59;5200121;28;20037;-77
2023/09/03 05:47:52;;;;;;;23.88;21.50;;;;;;;13.12;100.00;102484.16;5200548;28;20026;-77
2023/09/03 05:50:23;;;;;;;22.40;20.33;;;;;;;13.16;100.00;102489.41;5200555;28;20040;-77
2023/09/03 05:52:54;;;;;;;22.43;20.13;;;;;;;13.26;100.00;102489.41;5199866;28;20493;-76
2023/09/03 05:55:26;;;;;;;23.37;21.27;;;;;;;13.28;100.00;102490.31;5200302;28;20032;-76
2023/09/03 05:57:58;;;;;;;24.83;22.30;;;;;;;13.26;100.00;102492.03;5199903;28;20096;-76
2023/09/03 06:00:29;;;;;;;25.48;22.95;;;;;;;13.30;100.00;102508.66;5200325;28;20439;-77
2023/09/03 06:03:00;;;;;;;26.27;23.80;;;;;;;13.32;100.00;102509.53;5199945;28;20034;-76
2023/09/03 06:05:32;;;;;;;25.87;23.43;;;;;;;13.42;100.00;102519.19;5200282;28;20026;-76
2023/09/03 06:08:04;;;;;;;28.33;24.70;;;;;;;13.42;100.00;102511.34;5182560;28;20073;-77
2023/09/03 06:10:36;;;;;;;27.70;24.77;;;;;;;13.42;100.00;102523.56;5199939;28;20394;-77
2023/09/03 06:13:08;;;;;;;;;;;;;;;13.62;100.00;102519.28;5166902;28;20069;-79
2023/09/03 06:15:39;;;;;;;25.90;23.48;;;;;;;13.59;100.00;102526.25;5200049;28;19957;-77
2023/09/03 06:18:10;;;;;;;25.97;23.77;;;;;;;13.67;100.00;102520.16;5203505;28;20508;-77
2023/09/03 06:20:42;;;;;;;25.77;23.23;;;;;;;13.63;100.00;102534.09;5203777;28;20058;-77
2023/09/03 06:23:18;;;;;;;25.07;22.57;;;;;;;13.67;100.00;102530.63;5203820;28;20041;-78
2023/09/03 06:25:50;;;;;;;26.15;23.65;;;;;;;13.69;100.00;102535.88;5203426;28;20065;-77
2023/09/03 06:28:22;;;;;;;26.33;23.98;;;;;;;13.73;100.00;102547.22;5203391;28;20113;-77
2023/09/03 06:30:56;;;;;;;27.65;24.85;;;;;;;13.73;100.00;102555.09;5203511;28;20026;-77
2023/09/03 06:33:28;;;;;;;25.30;22.95;;;;;;;13.78;100.00;102549.00;5203550;28;20034;-77
2023/09/03 06:35:59;;;;;;;26.13;23.47;;;;;;;13.79;100.00;102566.47;5203540;28;20026;-77
2023/09/03 06:38:31;;;;;;;25.27;23.03;;;;;;;13.80;100.00;102576.09;5203318;28;20062;-77
2023/09/03 06:41:02;;;;;;;27.90;25.27;;;;;;;13.92;100.00;102569.13;5186173;28;20038;-77
2023/09/03 06:43:34;;;;;;;25.33;23.13;;;;;;;13.92;100.00;102567.38;5202961;28;20058;-77
2023/09/03 06:46:05;;;;;;;29.03;26.33;;;;;;;13.89;100.00;102569.97;5203415;28;20042;-77
2023/09/03 06:48:37;;;;;;;27.67;25.23;;;;;;;13.95;100.00;102579.63;5185787;28;20490;-77
2023/09/03 06:51:10;;;;;;;35.37;27.27;;;;;;;13.89;100.00;102582.22;5203015;28;20804;-77
2023/09/03 06:53:41;;;;;;;28.48;25.67;;;;;;;13.94;100.00;102588.34;5203438;28;20038;-77
2023/09/03 06:56:12;;;;;;;29.67;27.03;;;;;;;14.00;100.00;102580.50;5202859;28;20053;-77
2023/09/03 06:58:44;;;;;;;29.27;26.60;;;;;;;14.10;100.00;102587.47;5202765;28;20038;-78
2023/09/03 07:01:17;;;;;;;30.23;27.43;;;;;;;14.05;100.00;102591.84;5202758;28;20045;-77
2023/09/03 07:03:48;;;;;;;30.75;27.83;;;;;;;14.13;100.00;102592.75;5185688;28;20034;-77
2023/09/03 07:06:20;;;;;;;33.03;29.90;;;;;;;14.23;100.00;102594.53;5202793;28;20033;-77
2023/09/03 07:08:52;;;;;;;31.70;28.80;;;;;;;14.28;100.00;102593.63;5203243;28;20041;-77
2023/09/03 07:11:23;;;;;;;32.45;29.40;;;;;;;14.34;100.00;102588.38;5202728;28;20133;-78
2023/09/03 07:13:55;;;;;;;31.70;28.87;;;;;;;14.41;100.00;102593.66;5202509;28;20114;-77
2023/09/03 07:16:26;;;;;;;31.80;27.27;;;;;;;14.55;100.00;102595.38;5202805;28;20085;-77
2023/09/03 07:18:58;;;;;;;29.37;26.27;;;;;;;14.66;100.00;102596.28;5202385;28;20046;-77
2023/09/03 07:21:29;;;;;;;32.30;29.07;;;;;;;14.71;100.00;102601.53;5202327;28;20053;-78
2023/09/03 07:24:01;;;;;;;31.67;28.53;;;;;;;14.88;100.00;102610.28;5203007;28;20041;-77
2023/09/03 07:26:32;;;;;;;31.70;28.60;;;;;;;14.89;100.00;102606.78;5202501;28;20046;-77
2023/09/03 07:29:04;;;;;;;30.57;27.80;;;;;;;15.05;100.00;102602.38;5201609;28;20284;-76
2023/09/03 07:31:40;;;;;;;31.33;28.43;;;;;;;15.17;100.00;102600.59;5202341;28;20034;-76
2023/09/03 07:34:13;;;;;;;28.95;26.33;;;;;;;15.23;100.00;102604.06;5202356;28;20030;-76
2023/09/03 07:36:45;;;;;;;29.58;26.85;;;;;;;15.39;100.00;102611.88;5202110;28;20141;-77
2023/09/03 07:39:16;;;;;;;29.60;26.73;;;;;;;15.56;100.00;102623.19;5202407;28;20030;-77
2023/09/03 07:41:47;;;;;;;28.60;25.87;;;;;;;15.63;100.00;102618.78;5202305;28;20026;-77
2023/09/03 07:44:19;;;;;;;28.23;25.83;;;;;;;15.73;100.00;102625.78;5184384;28;20034;-77
2023/09/03 07:46:50;;;;;;;29.60;26.77;;;;;;;15.77;100.00;102626.66;5202031;28;20026;-77
2023/09/03 07:49:21;;;;;;;28.93;26.43;;;;;;;15.96;100.00;102633.56;5184990;28;20034;-78
2023/09/03 07:51:53;;;;;;;28.37;25.90;;;;;;;16.13;100.00;102636.09;5202568;28;20034;-80
2023/09/03 07:54:24;;;;;;;28.60;25.93;;;;;;;16.27;100.00;102640.38;5200380;28;20077;-79
2023/09/03 07:56:55;;;;;;;28.90;25.90;;;;;;;16.37;100.00;102628.91;5202133;28;20133;-79
2023/09/03 07:59:27;;;;;;;28.73;25.93;;;;;;;16.55;100.00;102636.66;5200810;28;20471;-78
2023/09/03 08:01:59;;;;;;;32.10;29.23;;;;;;;16.76;100.00;102637.38;5200400;28;20157;-79
2023/09/03 08:04:30;;;;;;;28.85;26.45;;;;;;;16.85;100.00;102628.50;5201336;28;20026;-79
2023/09/03 08:07:03;;;;;;;29.27;26.47;;;;;;;17.06;100.00;102627.44;5202091;28;20026;-78
2023/09/03 08:09:34;;;;;;;27.77;25.15;;;;;;;17.19;100.00;102629.03;5199910;28;20049;-78
2023/09/03 08:12:06;;;;;;;27.90;25.30;;;;;;;17.28;100.00;102630.72;5201451;28;20038;-78
2023/09/03 08:14:38;;;;;;;24.88;22.73;;;;;;;17.55;100.00;102628.63;5198959;28;20040;-78
2023/09/03 08:17:10;;;;;;;25.35;22.95;;;;;;;17.63;100.00;102627.66;5200404;28;20030;-78
2023/09/03 08:19:41;;;;;;;23.83;21.30;;;;;;;17.85;100.00;102637.91;5199958;28;20516;-78
2023/09/03 08:22:12;;;;;;;23.63;21.47;;;;;;;17.98;100.00;102634.25;5199836;28;20509;-78
2023/09/03 08:24:44;;;;;;;23.20;21.20;;;;;;;18.07;100.00;102629.75;5193657;28;20034;-79
2023/09/03 08:27:15;;;;;;;23.30;21.23;;;;;;;18.16;100.00;102626.94;5200361;28;20036;-79
2023/09/03 08:29:47;;;;;;;21.47;19.47;;;;;;;18.38;100.00;102628.34;5200118;28;20034;-79
2023/09/03 08:32:18;;;;;;;23.37;21.30;;;;;;;18.57;99.46;102631.56;5199556;28;20034;-79
2023/09/03 08:34:51;;;;;;;22.30;20.43;;;;;;;18.86;99.97;102630.22;5200149;28;20470;-80
2023/09/03 08:37:26;;;;;;;23.23;21.13;;;;;;;18.89;98.68;102627.50;5200377;28;20039;-80
2023/09/03 08:39:57;;;;;;;21.13;19.08;;;;;;;19.11;96.69;102632.38;5199080;28;20034;-79
2023/09/03 08:42:30;;;;;;;22.17;20.07;;;;;;;19.19;98.07;102641.06;5200450;28;20470;-80
2023/09/03 08:45:03;;;;;;;22.08;20.08;;;;;;;19.31;97.47;102645.22;5199419;28;20062;-80
2023/09/03 08:47:39;;;;;;;17.83;16.13;;;;;;;19.41;92.64;102645.91;5199368;28;20038;-79
2023/09/03 08:50:12;;;;;;;16.52;14.98;;;;;;;19.64;91.63;102648.97;5199326;28;20030;-79
2023/09/03 08:52:44;;;;;;;15.77;14.38;;;;;;;19.80;87.38;102646.00;5200252;28;20042;-79
2023/09/03 08:55:15;;;;;;;15.80;14.50;;;;;;;19.96;90.19;102644.75;5198702;28;20038;-80
2023/09/03 08:57:47;;;;;;;15.10;13.63;;;;;;;20.04;88.21;102649.88;5198241;28;20034;-79
2023/09/03 09:00:18;;;;;;;16.90;15.27;;;;;;;20.28;90.96;102647.56;5196669;28;20117;-79
2023/09/03 09:02:50;;;;;;;16.07;14.60;;;;;;;20.38;88.46;102649.06;5200400;28;20030;-80
2023/09/03 09:05:22;;;;;;;15.98;14.48;;;;;;;20.69;89.65;102651.88;5198499;28;20462;-78
2023/09/03 09:07:54;;;;;;;;;;;;;;;21.04;91.09;102650.09;5201006;28;20041;-79
2023/09/03 09:10:37;;;;;;;14.43;13.00;;;;;;;21.13;85.38;102644.50;5199835;28;19909;-79
2023/09/03 09:13:11;;;;;;;14.40;13.00;;;;;;;21.54;81.31;102652.25;5199267;28;20034;-79
2023/09/03 09:15:43;;;;;;;11.35;10.23;;;;;;;22.10;78.25;102656.72;5198910;28;20030;-79
2023/09/03 09:18:15;;;;;;;;;;;;;;;23.24;81.66;102647.59;5200407;28;20034;-79
2023/09/03 09:20:48;;;;;;;11.53;9.43;;;;;;;23.16;71.57;102648.81;5198520;28;19921;-80
2023/09/03 09:23:24;;;;;;;10.45;9.05;;;;;;;23.62;69.71;102647.09;5182474;28;20034;-80
2023/09/03 09:25:55;;;;;;;8.70;7.80;;;;;;;24.06;64.36;102648.97;5199299;28;20045;-79
2023/09/03 09:28:27;;;;;;;10.48;8.00;;;;;;;24.07;63.46;102648.03;5196795;28;20434;-78
2023/09/03 09:30:58;;;;;;;8.43;7.53;;;;;;;24.19;66.95;102652.88;5195267;28;20034;-79
2023/09/03 09:33:30;;;;;;;11.55;10.00;;;;;;;24.38;66.77;102642.31;5194156;28;20129;-79
2023/09/03 09:36:13;;;;;;;10.53;9.57;;;;;;;24.65;66.44;102643.00;5200208;28;20031;-80
2023/09/03 09:38:45;;;;;;;9.88;8.98;;;;;;;25.09;63.27;102645.50;5181760;28;20046;-79
2023/09/03 09:41:24;;;;;;;8.25;6.88;;;;;;;25.32;62.67;102642.75;5200928;28;20478;-80
2023/09/03 09:43:55;;;;;;;9.02;6.90;;;;;;;25.16;59.85;102632.75;5200419;28;20478;-80
2023/09/03 09:46:28;;;;;;;9.50;7.60;;;;;;;24.94;57.12;102632.84;5182685;28;20030;-79
2023/09/03 09:49:01;;;;;;;12.27;7.82;;;;;;;24.73;60.50;102638.19;5200748;28;20265;-79
2023/09/03 09:51:32;;;;;;;9.20;6.78;;;;;;;24.45;59.82;102627.78;5201556;28;20037;-79
2023/09/03 09:54:04;;;;;;;7.38;6.10;;;;;;;24.86;62.06;102622.53;5201438;28;20386;-80
2023/09/03 09:56:36;;;;;;;7.80;6.00;;;;;;;25.01;59.84;102628.97;5203294;28;20466;-78
2023/09/03 09:59:09;;;;;;;8.32;6.10;;;;;;;25.09;56.30;102632.16;5202078;28;20034;-79
2023/09/03 10:01:46;;;;;;;8.73;5.60;;;;;;;25.19;58.86;102621.06;5201645;28;20387;-81
2023/09/03 10:04:27;;;;;;;8.23;6.35;;;;;;;25.62;60.03;102627.13;5202981;28;20439;-80
2023/09/03 10:06:59;;;;;;;6.65;5.97;;;;;;;25.87;56.08;102633.94;5203714;28;20033;-80
2023/09/03 10:09:30;;;;;;;;;;;;;;;27.14;58.96;102621.28;5204019;28;20034;-79
2023/09/03 10:12:06;;;;;;;7.97;6.60;;;;;;;26.41;57.73;102629.53;5204341;28;20361;-79
2023/09/03 10:14:39;;;;;;;8.63;6.05;;;;;;;26.50;54.60;102633.53;5204630;28;20121;-80
2023/09/03 10:17:11;;;;;;;8.30;6.13;;;;;;;27.11;50.51;102618.75;5207217;28;20029;-80
2023/09/03 10:19:55;;;;;;;7.60;6.43;;;;;;;27.48;50.87;102614.09;5204671;28;20545;-79
2023/09/03 10:22:30;;;;;;;8.27;5.47;;;;;;;27.49;50.13;102623.88;5209632;28;20042;-79
2023/09/03 10:25:07;;;;;;;6.38;5.47;;;;;;;27.96;47.91;102622.16;5211916;28;20081;-78
2023/09/03 10:27:43;;;;;;;6.55;5.18;;;;;;;28.16;48.28;102626.38;5211259;28;20450;-80
2023/09/03 10:30:17;;;;;;;8.35;5.55;;;;;;;28.18;47.43;102619.97;5210995;28;20093;-78
2023/09/03 10:32:52;;;;;;;6.18;5.57;;;;;;;29.17;44.48;102619.38;5210718;28;20035;-79
2023/09/03 10:35:24;;;;;;;5.72;4.63;;;;;;;29.86;44.70;102627.56;5209911;28;20473;-79
2023/09/03 10:37:55;;;;;;;8.50;5.38;;;;;;;30.20;39.89;102630.69;5213039;28;20053;-78
2023/09/03 10:40:32;;;;;;;7.93;5.18;;;;;;;30.46;41.51;102625.38;5225992;28;20072;-79
2023/09/03 10:43:18;;;;;;;8.30;5.35;;;;;;;30.92;42.67;102616.81;5226409;28;20034;-80
2023/09/03 10:46:06;;;;;;;8.73;4.60;;;;;;;31.25;43.24;102610.88;5224886;28;20121;-80
2023/09/03 10:48:38;;;;;;;7.85;5.55;;;;;;;31.34;37.84;102622.81;5224210;28;20026;-80
2023/09/03 10:51:32;;;;;;;7.50;5.80;;;;;;;31.88;39.63;102616.19;5223899;28;20517;-80
2023/09/03 10:54:25;;;;;;;5.82;4.75;;;;;;;31.66;40.34;102626.84;5223446;28;20041;-80
2023/09/03 10:57:19;;;;;;;9.88;5.03;;;;;;;31.56;40.46;102626.69;5223634;28;20029;-81
2023/09/03 11:00:05;;;;;;;7.25;4.63;;;;;;;30.94;39.46;102622.09;5212010;28;20052;-80
2023/09/03 11:02:38;;;;;;;5.57;4.32;;;;;;;31.24;38.78;102619.91;5222227;28;20037;-79
2023/09/03 11:05:14;;;;;;;4.97;3.83;;;;;;;31.37;36.24;102610.94;5222798;28;20116;-81
2023/09/03 11:07:47;;;;;;;5.47;3.67;;;;;;;32.14;35.06;102622.31;5223185;28;20033;-79
2023/09/03 11:10:27;;;;;;;4.63;3.45;;;;;;;31.97;37.62;102620.88;5222794;28;20052;-80
2023/09/03 11:12:58;;;;;;;6.03;3.72;;;;;;;32.79;33.51;102622.75;5223390;28;20121;-81
2023/09/03 11:15:30;;;;;;;5.28;2.92;;;;;;;33.06;35.20;102625.09;5222553;28;20117;-81
2023/09/03 11:18:01;;;;;;;4.90;3.28;;;;;;;32.90;31.81;102617.34;5222958;28;20045;-79
2023/09/03 11:20:34;;;;;;;3.63;3.08;;;;;;;32.89;31.37;102626.47;5222138;28;20096;-81
2023/09/03 11:23:09;;;;;;;6.20;3.53;;;;;;;32.84;32.68;102631.34;5223517;28;20486;-81
2023/09/03 11:25:41;;;;;;;4.40;2.97;;;;;;;33.25;34.53;102626.38;5205159;28;20026;-81
2023/09/03 11:28:13;;;;;;;4.80;3.85;;;;;;;33.17;31.54;102629.69;5223429;28;20473;-81
2023/09/03 11:30:46;;;;;;;5.40;2.25;;;;;;;32.62;30.00;102629.47;5223636;28;20048;-81
2023/09/03 11:33:22;;;;;;;3.22;2.70;;;;;;;32.98;32.68;102627.56;5233081;28;20034;-81